Time;durP1;ratioP1;P1;durP2;ratioP2;P2;SDS_P1;SDS_P2;PMS_P1;PMS_P2;Temp;Humidity;BMP_temperature;BMP_pressure;BME280_temperature;BME280_humidity;BME280_pressure;Samples;Min_cycle;Max_cycle;Signal;HPM_P1;HPM_P2
2020/12/27 00:00:13;;;;;;;;;;;;;;;19.61;62.93;101494.63;5077942;28;1328;-58
2020/12/27 00:02:38;;;;;;;;;;;;;;;19.61;62.85;101491.94;5077007;28;1347;-54
2020/12/27 00:05:04;;;;;;;;;;;;;;;19.57;63.02;101495.84;5077316;28;1906;-57
2020/12/27 00:07:29;;;;;;;;;;;;;;;19.62;63.46;101492.81;5078337;28;811;-54
2020/12/27 00:09:55;;;;;;;;;;;;;;;19.61;62.91;101508.03;5078247;28;1368;-54
2020/12/27 00:12:20;;;;;;;;;;;;;;;19.58;62.70;101513.66;5078100;28;1563;-57
2020/12/27 00:14:45;;;;;;;;;;;;;;;19.63;62.59;101532.06;5078025;28;1502;-54
2020/12/27 00:17:12;;;;;;;;;;;;;;;19.62;62.67;101536.59;5077823;28;1475;-54
2020/12/27 00:19:38;;;;;;;;;;;;;;;19.58;62.67;101523.53;5078353;28;738;-54
2020/12/27 00:22:04;;;;;;;;;;;;;;;19.58;62.63;101528.91;5078255;28;811;-56
2020/12/27 00:24:29;;;;;;;;;;;;;;;19.58;62.56;101531.59;5077873;28;1889;-54
2020/12/27 00:26:55;;;;;;;;;;;;;;;19.52;62.52;101526.69;5078262;28;847;-54
2020/12/27 00:29:20;;;;;;;;;;;;;;;19.58;62.41;101527.06;5077138;28;1558;-54
2020/12/27 00:31:48;;;;;;;;;;;;;;;19.55;62.63;101518.41;5077835;28;857;-56
2020/12/27 00:34:13;;;;;;;;;;;;;;;19.56;62.46;101533.53;5077743;28;1490;-54
2020/12/27 00:36:38;;;;;;;;;;;;;;;19.54;62.24;101546.22;5077763;28;821;-57
2020/12/27 00:39:06;;;;;;;;;;;;;;;19.53;62.00;101541.81;5077700;28;876;-57
2020/12/27 00:41:32;;;;;;;;;;;;;;;19.49;62.09;101546.56;5077912;28;805;-54
2020/12/27 00:43:58;;;;;;;;;;;;;;;19.50;61.99;101542.03;5077226;28;1882;-57
2020/12/27 00:46:23;;;;;;;;;;;;;;;19.48;62.02;101545.72;5077454;28;1566;-54
2020/12/27 00:48:49;;;;;;;;;;;;;;;19.49;61.67;101533.16;5077811;28;782;-57
2020/12/27 00:51:24;;;;;;;;;;;;;;;19.46;61.90;101533.41;5077500;28;814;-56
2020/12/27 00:53:50;;;;;;;;;;;;;;;19.45;61.74;101537.88;5076755;28;1347;-54
2020/12/27 00:56:16;;;;;;;;;;;;;;;19.40;61.58;101528.50;5076857;28;1258;-57
2020/12/27 00:58:42;;;;;;;;;;;;;;;19.42;61.34;101537.28;5076503;28;1262;-57
2020/12/27 01:01:11;;;;;;;;;;;;;;;19.41;61.38;101527.53;5091965;23;2157;-47
2020/12/27 01:03:39;;;;;;;;;;;;;;;19.36;61.32;101519.84;5092400;28;1983;-48
2020/12/27 01:06:06;;;;;;;;;;;;;;;19.42;61.46;101524.72;5094512;28;1360;-48
2020/12/27 01:08:33;;;;;;;;;;;;;;;19.41;61.65;101522.16;5095608;28;1523;-47
2020/12/27 01:11:06;;;;;;;;;;;;;;;19.39;61.11;101516.91;5095745;28;1281;-48
2020/12/27 01:13:32;;;;;;;;;;;;;;;19.38;61.12;101522.41;5094472;28;1457;-48
2020/12/27 01:15:58;;;;;;;;;;;;;;;19.37;61.10;101504.59;5094608;28;1344;-48
2020/12/27 01:18:25;;;;;;;;;;;;;;;19.38;60.97;101507.19;5094352;28;1336;-48
2020/12/27 01:20:50;;;;;;;;;;;;;;;19.36;60.96;101514.50;5094340;28;1451;-47
2020/12/27 01:23:16;;;;;;;;;;;;;;;19.41;60.87;101506.91;5092609;28;1657;-47
2020/12/27 01:25:45;;;;;;;;;;;;;;;19.39;60.47;101503.50;5095418;28;1882;-48
2020/12/27 01:28:12;;;;;;;;;;;;;;;19.37;60.67;101505.44;5095391;28;838;-48
2020/12/27 01:30:38;;;;;;;;;;;;;;;19.37;60.79;101500.09;5096043;28;836;-48
2020/12/27 01:33:03;;;;;;;;;;;;;;;19.39;60.69;101511.53;5094543;28;1267;-47
2020/12/27 01:35:30;;;;;;;;;;;;;;;19.36;60.45;101498.41;5095918;28;874;-48
2020/12/27 01:37:55;;;;;;;;;;;;;;;19.38;60.27;101507.19;5095708;28;1565;-48
2020/12/27 01:40:21;;;;;;;;;;;;;;;19.37;60.27;101513.50;5096027;28;879;-47
2020/12/27 01:42:57;;;;;;;;;;;;;;;19.34;60.42;101516.44;5081504;28;1579;-48
2020/12/27 01:45:23;;;;;;;;;;;;;;;19.38;60.19;101531.31;5064153;28;1886;-47
2020/12/27 01:47:51;;;;;;;;;;;;;;;19.35;60.04;101514.59;5095490;28;939;-47
2020/12/27 01:50:17;;;;;;;;;;;;;;;19.34;60.05;101523.59;5094268;28;1533;-47
2020/12/27 01:52:43;;;;;;;;;;;;;;;19.36;59.78;101533.25;5082527;28;1452;-47
2020/12/27 01:55:18;;;;;;;;;;;;;;;19.33;59.87;101552.25;5095119;28;904;-47
2020/12/27 01:57:53;;;;;;;;;;;;;;;19.31;59.96;101559.56;5095489;28;873;-47
2020/12/27 02:00:20;;;;;;;;;;;;;;;19.29;60.04;101553.47;5095116;28;887;-48
2020/12/27 02:02:54;;;;;;;;;;;;;;;19.29;59.73;101537.38;5093580;28;1500;-47
2020/12/27 02:05:20;;;;;;;;;;;;;;;19.27;59.72;101524.09;5095048;28;1965;-47
2020/12/27 02:07:45;;;;;;;;;;;;;;;19.27;59.55;101525.91;5094911;28;1514;-47
2020/12/27 02:10:12;;;;;;;;;;;;;;;19.26;59.55;101551.88;5094206;28;861;-47
2020/12/27 02:12:41;;;;;;;;;;;;;;;19.24;59.50;101535.06;5093683;28;1357;-48
2020/12/27 02:15:07;;;;;;;;;;;;;;;19.25;59.36;101535.91;5093779;28;1679;-47
2020/12/27 02:17:32;;;;;;;;;;;;;;;19.21;59.60;101529.91;5094981;28;852;-48
2020/12/27 02:19:57;;;;;;;;;;;;;;;19.25;59.40;101527.88;5093420;28;1507;-47
2020/12/27 02:22:24;;;;;;;;;;;;;;;19.24;59.30;101532.38;5094954;28;1464;-47
2020/12/27 02:24:49;;;;;;;;;;;;;;;19.22;59.32;101533.47;5094904;28;1886;-47
2020/12/27 02:27:16;;;;;;;;;;;;;;;19.20;59.46;101535.41;5094886;28;943;-47
2020/12/27 02:29:42;;;;;;;;;;;;;;;19.22;59.45;101525.44;5094877;28;786;-47
2020/12/27 02:32:07;;;;;;;;;;;;;;;19.22;59.31;101538.84;5094314;28;880;-47
2020/12/27 02:34:33;;;;;;;;;;;;;;;19.22;58.88;101517.41;5083234;28;991;-48
2020/12/27 02:37:00;;;;;;;;;;;;;;;19.25;59.20;101522.50;5079739;28;1616;-48
2020/12/27 02:39:25;;;;;;;;;;;;;;;19.26;59.08;101521.53;5094774;28;842;-48
2020/12/27 02:41:59;;;;;;;;;;;;;;;19.23;58.97;101519.09;5094365;28;927;-48
2020/12/27 02:44:25;;;;;;;;;;;;;;;19.23;58.99;101514.56;5094190;28;1889;-48
2020/12/27 02:46:51;;;;;;;;;;;;;;;19.25;58.98;101530.53;5094806;28;1535;-48
2020/12/27 02:49:16;;;;;;;;;;;;;;;19.24;58.80;101499.34;5094547;28;828;-48
2020/12/27 02:51:41;;;;;;;;;;;;;;;19.24;58.66;101499.34;5094540;28;1441;-48
2020/12/27 02:54:08;;;;;;;;;;;;;;;19.22;58.69;101501.31;5093687;28;941;-48
2020/12/27 02:56:33;;;;;;;;;;;;;;;19.22;58.94;101501.31;5093766;28;1633;-48
2020/12/27 02:58:59;;;;;;;;;;;;;;;19.23;58.51;101503.84;5094025;28;841;-48
2020/12/27 03:01:24;;;;;;;;;;;;;;;19.20;58.47;101498.75;5092572;28;1309;-48
2020/12/27 03:03:50;;;;;;;;;;;;;;;19.11;59.68;101487.88;5093889;28;1913;-48
2020/12/27 03:06:15;;;;;;;;;;;;;;;18.84;61.11;101513.13;5093449;28;1150;-49
2020/12/27 03:08:41;;;;;;;;;;;;;;;18.67;62.33;101501.81;5093488;28;1125;-48
2020/12/27 03:11:07;;;;;;;;;;;;;;;18.61;62.73;101504.13;5093712;28;1332;-48
2020/12/27 03:13:33;;;;;;;;;;;;;;;18.53;62.51;101504.69;5090771;28;1451;-49
2020/12/27 03:15:59;;;;;;;;;;;;;;;18.53;62.73;101510.03;5093798;28;1253;-48
2020/12/27 03:18:26;;;;;;;;;;;;;;;18.49;63.01;101520.13;5093650;28;927;-48
2020/12/27 03:20:51;;;;;;;;;;;;;;;18.48;63.82;101517.53;5093780;28;1650;-48
2020/12/27 03:23:16;;;;;;;;;;;;;;;18.48;63.48;101517.53;5093639;28;865;-49
2020/12/27 03:25:42;;;;;;;;;;;;;;;18.45;63.82;101528.50;5092944;28;1902;-48
2020/12/27 03:28:08;;;;;;;;;;;;;;;18.40;63.48;101527.97;5092614;28;1423;-48
2020/12/27 03:30:33;;;;;;;;;;;;;;;18.40;63.76;101536.00;5093106;28;1272;-48
2020/12/27 03:32:58;;;;;;;;;;;;;;;18.41;64.43;101538.59;5092995;28;1273;-48
2020/12/27 03:35:23;;;;;;;;;;;;;;;18.37;64.00;101538.94;5093127;28;1462;-49
2020/12/27 03:37:49;;;;;;;;;;;;;;;18.35;64.03;101541.72;5093107;28;1324;-48
2020/12/27 03:40:14;;;;;;;;;;;;;;;18.37;64.88;101550.50;5074550;28;1274;-48
2020/12/27 03:42:39;;;;;;;;;;;;;;;18.36;64.20;101550.59;5092688;28;1431;-48
2020/12/27 03:45:05;;;;;;;;;;;;;;;18.33;64.38;101550.84;5092316;28;1907;-48
2020/12/27 03:47:30;;;;;;;;;;;;;;;18.35;64.16;101552.44;5092995;28;1400;-48
2020/12/27 03:49:55;;;;;;;;;;;;;;;18.36;64.90;101562.16;5092811;28;1412;-48
2020/12/27 03:52:20;;;;;;;;;;;;;;;18.34;64.19;101542.66;5092986;28;1293;-49
2020/12/27 03:54:46;;;;;;;;;;;;;;;18.33;64.93;101549.00;5092727;28;1349;-48
2020/12/27 03:57:11;;;;;;;;;;;;;;;18.38;64.63;101548.66;5092157;28;1658;-50
2020/12/27 03:59:36;;;;;;;;;;;;;;;18.41;65.77;101564.50;5092403;28;1301;-49
2020/12/27 04:02:01;;;;;;;;;;;;;;;18.45;66.73;101556.13;5091625;28;1473;-49
2020/12/27 04:04:27;;;;;;;;;;;;;;;18.47;69.18;101566.75;5092399;28;1913;-49
2020/12/27 04:06:52;;;;;;;;;;;;;;;18.12;67.61;101558.59;5092429;28;1350;-49
2020/12/27 04:09:17;;;;;;;;;;;;;;;17.68;68.18;101558.91;5091320;28;1302;-49
2020/12/27 04:11:42;;;;;;;;;;;;;;;17.32;68.13;101559.66;5091808;28;1420;-49
2020/12/27 04:14:08;;;;;;;;;;;;;;;17.08;67.66;101560.38;5092734;28;1465;-49
2020/12/27 04:16:33;;;;;;;;;;;;;;;17.00;67.97;101559.19;5092958;28;1272;-49
2020/12/27 04:18:58;;;;;;;;;;;;;;;16.87;68.91;101549.31;5091858;28;1376;-49
2020/12/27 04:21:23;;;;;;;;;;;;;;;16.78;68.71;101547.22;5090873;28;1509;-49
2020/12/27 04:23:49;;;;;;;;;;;;;;;16.85;66.66;101550.34;5090808;28;1978;-49
2020/12/27 04:26:15;;;;;;;;;;;;;;;16.90;66.97;101538.41;5091843;28;1361;-49
2020/12/27 04:28:41;;;;;;;;;;;;;;;16.91;66.42;101541.97;5090432;28;1272;-50
2020/12/27 04:31:11;;;;;;;;;;;;;;;16.88;66.35;101545.66;5089929;28;1338;-49
2020/12/27 04:33:36;;;;;;;;;;;;;;;16.65;65.00;101546.31;5090961;28;1292;-49
2020/12/27 04:36:01;;;;;;;;;;;;;;;16.85;64.96;101539.66;5085365;28;1724;-47
2020/12/27 04:38:27;;;;;;;;;;;;;;;16.88;66.69;101555.50;5088691;28;1574;-47
2020/12/27 04:40:53;;;;;;;;;;;;;;;17.17;66.62;101550.88;5086330;28;2220;-47
2020/12/27 04:43:18;;;;;;;;;;;;;;;17.30;64.33;101545.53;5080142;28;1159;-47
2020/12/27 04:45:45;;;;;;;;;;;;;;;17.07;60.17;101534.63;5076305;28;1961;-47
2020/12/27 04:48:10;;;;;;;;;;;;;;;16.50;58.99;101537.50;5078667;28;1469;-47
2020/12/27 04:50:36;;;;;;;;;;;;;;;16.15;58.31;101547.78;5075547;28;2642;-47
2020/12/27 04:53:02;;;;;;;;;;;;;;;16.28;57.22;101532.69;5076885;28;1793;-47
2020/12/27 04:55:27;;;;;;;;;;;;;;;16.48;56.31;101552.75;5075870;28;1520;-47
2020/12/27 04:57:54;;;;;;;;;;;;;;;16.60;58.47;101545.78;5077572;28;1456;-47
2020/12/27 05:00:22;;;;;;;;;;;;;;;17.27;57.45;101554.63;5073390;28;1775;-48
2020/12/27 05:02:47;;;;;;;;;;;;;;;17.83;55.85;101537.41;5062335;28;11004;-47
2020/12/27 05:05:14;;;;;;;;;;;;;;;18.22;55.48;101549.81;5083663;28;1905;-48
2020/12/27 05:07:43;;;;;;;;;;;;;;;18.39;55.55;101548.56;5083898;28;1538;-48
2020/12/27 05:10:13;;;;;;;;;;;;;;;18.54;56.28;101545.72;5083836;28;1533;-47
2020/12/27 05:12:38;;;;;;;;;;;;;;;18.62;57.07;101536.16;5082448;28;1741;-47
2020/12/27 05:15:06;;;;;;;;;;;;;;;18.73;57.11;101538.00;5086775;28;1635;-48
2020/12/27 05:17:35;;;;;;;;;;;;;;;18.79;57.23;101542.94;5084871;28;1521;-47
2020/12/27 05:20:12;;;;;;;;;;;;;;;18.86;57.68;101543.31;5070292;28;1389;-48
2020/12/27 05:22:39;;;;;;;;;;;;;;;18.91;57.94;101551.88;5083837;28;1306;-47
2020/12/27 05:25:05;;;;;;;;;;;;;;;18.99;57.85;101543.28;5086740;28;1953;-48
2020/12/27 05:27:34;;;;;;;;;;;;;;;19.01;57.97;101547.53;5069047;28;2296;-48
2020/12/27 05:30:00;;;;;;;;;;;;;;;19.10;57.58;101559.41;5085998;28;1581;-48
2020/12/27 05:32:29;;;;;;;;;;;;;;;19.10;57.82;101564.75;5084264;28;1695;-47
2020/12/27 05:34:54;;;;;;;;;;;;;;;19.11;57.91;101560.25;5085918;28;1417;-48
2020/12/27 05:37:19;;;;;;;;;;;;;;;19.13;57.98;101561.00;5085030;28;1539;-49
2020/12/27 05:39:44;;;;;;;;;;;;;;;19.15;57.99;101559.03;5087119;28;1702;-47
2020/12/27 05:42:11;;;;;;;;;;;;;;;19.22;58.05;101560.28;5083962;28;1525;-47
2020/12/27 05:44:37;;;;;;;;;;;;;;;19.14;58.38;101557.31;5083180;28;1964;-47
2020/12/27 05:47:02;;;;;;;;;;;;;;;19.08;58.76;101554.16;5084500;28;1524;-47
2020/12/27 05:49:27;;;;;;;;;;;;;;;18.96;59.15;101539.00;5085403;28;1088;-47
2020/12/27 05:51:56;;;;;;;;;;;;;;;18.94;59.26;101546.31;5085165;28;1681;-47
2020/12/27 05:54:28;;;;;;;;;;;;;;;18.90;59.31;101534.13;5087183;28;1641;-47
2020/12/27 05:56:56;;;;;;;;;;;;;;;18.85;59.53;101536.28;5084679;28;1783;-47
2020/12/27 05:59:27;;;;;;;;;;;;;;;18.86;60.05;101529.94;5084841;28;2051;-47
2020/12/27 06:01:54;;;;;;;;;;;;;;;18.86;60.08;101543.31;5084045;28;1514;-47
2020/12/27 06:04:44;;;;;;;;;;;;;;;18.85;60.76;101544.31;5078493;28;1922;-50
2020/12/27 06:07:20;;;;;;;;;;;;;;;18.80;61.01;101533.06;5059502;28;2037;-47
2020/12/27 06:09:45;;;;;;;;;;;;;;;18.78;60.92;101541.22;5081421;28;1831;-47
2020/12/27 06:12:12;;;;;;;;;;;;;;;18.76;61.18;101537.81;5085159;28;1531;-47
2020/12/27 06:14:39;;;;;;;;;;;;;;;18.79;61.69;101534.91;5086036;28;1458;-47
2020/12/27 06:17:13;;;;;;;;;;;;;;;18.85;61.54;101547.00;5068585;28;1658;-47
2020/12/27 06:19:45;;;;;;;;;;;;;;;18.90;61.67;101534.13;5087529;28;1340;-47
2020/12/27 06:22:10;;;;;;;;;;;;;;;18.90;61.43;101539.47;5087173;28;1803;-47
2020/12/27 06:24:37;;;;;;;;;;;;;;;18.85;63.66;101531.75;5081445;28;1949;-48
2020/12/27 06:27:04;;;;;;;;;;;;;;;18.84;63.61;101539.91;5083660;28;1643;-47
2020/12/27 06:29:33;;;;;;;;;;;;;;;18.85;63.67;101528.22;5087765;28;1572;-47
2020/12/27 06:32:01;;;;;;;;;;;;;;;18.92;63.95;101537.53;5086837;28;1669;-47
2020/12/27 06:34:26;;;;;;;;;;;;;;;18.94;64.01;101532.03;5088397;28;1212;-47
2020/12/27 06:36:51;;;;;;;;;;;;;;;19.03;63.99;101542.06;5084325;28;1925;-48
2020/12/27 06:39:30;;;;;;;;;;;;;;;19.20;62.84;101530.03;5092290;28;1565;-47
2020/12/27 06:42:07;;;;;;;;;;;;;;;19.28;62.85;101541.91;5088456;28;1496;-48
2020/12/27 06:44:51;;;;;;;;;;;;;;;19.27;64.05;101525.91;5089666;28;1882;-47
2020/12/27 06:47:17;;;;;;;;;;;;;;;19.24;65.27;101540.44;5086338;28;1448;-47
2020/12/27 06:49:43;;;;;;;;;;;;;;;19.19;64.77;101534.53;5085087;28;1329;-47
2020/12/27 06:52:18;;;;;;;;;;;;;;;19.22;64.93;101546.88;5083021;28;1778;-47
2020/12/27 06:54:46;;;;;;;;;;;;;;;19.25;65.11;101541.28;5087747;28;1753;-48
2020/12/27 06:57:33;;;;;;;;;;;;;;;19.21;65.00;101543.31;5089562;28;1620;-48
2020/12/27 07:00:16;;;;;;;;;;;;;;;19.11;65.00;101546.84;5084582;28;1687;-47
2020/12/27 07:02:42;;;;;;;;;;;;;;;19.04;65.21;101547.31;5086567;28;1525;-48
2020/12/27 07:05:08;;;;;;;;;;;;;;;19.02;65.37;101525.13;5091718;28;1980;-48
2020/12/27 07:07:43;;;;;;;;;;;;;;;19.03;65.66;101529.50;5087817;28;1409;-49
2020/12/27 07:10:09;;;;;;;;;;;;;;;18.98;65.72;101528.16;5087384;28;1297;-47
2020/12/27 07:12:35;;;;;;;;;;;;;;;18.94;65.74;101514.16;5089660;28;1861;-47
2020/12/27 07:15:00;;;;;;;;;;;;;;;18.90;66.27;101522.50;5091059;28;1537;-48
2020/12/27 07:17:33;;;;;;;;;;;;;;;18.91;66.46;101516.19;5083955;28;2231;-47
2020/12/27 07:20:00;;;;;;;;;;;;;;;18.91;66.27;101535.81;5085241;28;1722;-47
2020/12/27 07:22:27;;;;;;;;;;;;;;;18.91;66.49;101519.72;5085485;28;1623;-47
2020/12/27 07:24:52;;;;;;;;;;;;;;;18.87;66.60;101512.91;5085127;28;1897;-48
2020/12/27 07:27:18;;;;;;;;;;;;;;;18.88;66.50;101504.75;5083180;28;1739;-48
2020/12/27 07:29:52;;;;;;;;;;;;;;;18.87;66.62;101504.84;5082566;28;1576;-48
2020/12/27 07:32:19;;;;;;;;;;;;;;;18.84;66.98;101513.13;5084327;28;1950;-48
2020/12/27 07:34:44;;;;;;;;;;;;;;;18.81;67.15;101508.00;5079595;28;1330;-49
2020/12/27 07:37:10;;;;;;;;;;;;;;;18.84;67.13;101507.75;5080917;28;1734;-48
2020/12/27 07:39:53;;;;;;;;;;;;;;;18.84;67.09;101505.94;5084307;28;1482;-48
2020/12/27 07:42:22;;;;;;;;;;;;;;;18.83;66.66;101506.06;5084819;28;1504;-50
2020/12/27 07:44:47;;;;;;;;;;;;;;;18.85;67.00;101510.31;5082488;28;1944;-48
2020/12/27 07:47:12;;;;;;;;;;;;;;;18.85;66.73;101504.97;5073078;28;1441;-48
2020/12/27 07:49:37;;;;;;;;;;;;;;;18.87;66.12;101518.25;5066545;28;1335;-49
2020/12/27 07:52:03;;;;;;;;;;;;;;;18.86;65.90;101511.16;5074683;28;1647;-49
2020/12/27 07:54:28;;;;;;;;;;;;;;;18.81;66.69;101524.06;5069366;28;1944;-49
2020/12/27 07:56:53;;;;;;;;;;;;;;;18.80;67.18;101533.06;5070974;28;1549;-49
2020/12/27 07:59:18;;;;;;;;;;;;;;;18.86;67.26;101524.56;5077049;28;1465;-49
2020/12/27 08:01:44;;;;;;;;;;;;;;;18.90;66.58;101518.03;5075810;28;1517;-49
2020/12/27 08:04:09;;;;;;;;;;;;;;;18.89;66.58;101521.66;5082687;28;1913;-50
2020/12/27 08:06:40;;;;;;;;;;;;;;;18.96;66.40;101520.25;5079883;28;1532;-48
2020/12/27 08:09:06;;;;;;;;;;;;;;;18.97;66.15;101508.53;5073197;28;1623;-49
2020/12/27 08:11:32;;;;;;;;;;;;;;;18.99;66.00;101505.75;5071653;28;1588;-49
2020/12/27 08:13:59;;;;;;;;;;;;;;;19.01;65.79;101499.28;5079042;28;1503;-48
2020/12/27 08:16:25;;;;;;;;;;;;;;;18.98;66.12;101504.91;5080537;28;1547;-48
2020/12/27 08:19:20;;;;;;;;;;;;;;;19.02;65.46;101492.97;5078884;28;1596;-49
2020/12/27 08:21:46;;;;;;;;;;;;;;;18.99;65.58;101495.88;5072348;28;1521;-50
2020/12/27 08:24:12;;;;;;;;;;;;;;;18.99;65.75;101503.06;5077323;28;1938;-49
2020/12/27 08:26:41;;;;;;;;;;;;;;;18.99;65.49;101492.34;5081176;28;1738;-49
2020/12/27 08:29:09;;;;;;;;;;;;;;;18.93;65.62;101499.03;5074013;28;1538;-49
2020/12/27 08:31:35;;;;;;;;;;;;;;;18.92;65.67;101500.00;5082477;28;1645;-49
2020/12/27 08:34:04;;;;;;;;;;;;;;;19.00;65.98;101505.63;5087226;28;1242;-48
2020/12/27 08:36:30;;;;;;;;;;;;;;;18.98;65.98;101509.38;5074421;28;10979;-49
2020/12/27 08:39:01;;;;;;;;;;;;;;;18.99;66.10;101493.19;5082376;28;1484;-49
2020/12/27 08:41:27;;;;;;;;;;;;;;;18.97;66.01;101495.13;5083207;28;1426;-48
2020/12/27 08:44:11;;;;;;;;;;;;;;;18.99;65.92;101493.19;5085486;28;1914;-49
2020/12/27 08:46:40;;;;;;;;;;;;;;;18.94;66.25;101492.72;5080430;28;1619;-50
2020/12/27 08:49:08;;;;;;;;;;;;;;;18.87;66.23;101492.31;5081253;28;1218;-51
2020/12/27 08:51:36;;;;;;;;;;;;;;;18.83;66.38;101487.31;5084716;28;1488;-49
2020/12/27 08:54:03;;;;;;;;;;;;;;;18.70;66.09;101479.28;5081469;28;1716;-48
2020/12/27 08:56:29;;;;;;;;;;;;;;;18.68;66.43;101467.84;5075701;28;1755;-49
2020/12/27 08:58:55;;;;;;;;;;;;;;;18.66;65.83;101451.91;5080997;28;1412;-49
2020/12/27 09:01:21;;;;;;;;;;;;;;;18.65;66.10;101465.41;5085142;28;1612;-50
2020/12/27 09:03:47;;;;;;;;;;;;;;;18.63;66.23;101462.84;5084777;28;1937;-49
2020/12/27 09:06:13;;;;;;;;;;;;;;;18.62;66.35;101445.06;5080774;28;1495;-49
2020/12/27 09:08:38;;;;;;;;;;;;;;;18.61;66.22;101451.38;5082561;28;1562;-49
2020/12/27 09:11:03;;;;;;;;;;;;;;;18.61;66.57;101453.22;5086413;28;1470;-48
2020/12/27 09:13:34;;;;;;;;;;;;;;;18.60;66.29;101448.81;5082466;28;1756;-49
2020/12/27 09:15:59;;;;;;;;;;;;;;;18.53;66.24;101435.03;5079796;28;1889;-50
2020/12/27 09:18:30;;;;;;;;;;;;;;;18.53;66.62;101437.72;5082983;28;1546;-49
2020/12/27 09:20:57;;;;;;;;;;;;;;;18.51;66.30;101430.78;5074420;28;1473;-49
2020/12/27 09:23:23;;;;;;;;;;;;;;;18.50;66.78;101427.22;5073962;28;1495;-50
2020/12/27 09:26:02;;;;;;;;;;;;;;;18.46;66.22;101417.72;5080475;28;1885;-49
2020/12/27 09:28:27;;;;;;;;;;;;;;;18.41;66.71;101402.00;5080710;28;1544;-49
2020/12/27 09:31:05;;;;;;;;;;;;;;;18.39;66.21;101397.75;5083054;28;1523;-50
2020/12/27 09:33:35;;;;;;;;;;;;;;;18.42;66.06;101387.66;5068282;28;1166;-49
2020/12/27 09:36:00;;;;;;;;;;;;;;;18.51;66.60;101395.97;5077678;28;1472;-49
2020/12/27 09:38:26;;;;;;;;;;;;;;;18.53;66.18;101386.84;5078995;28;1417;-49
2020/12/27 09:41:21;;;;;;;;;;;;;;;18.58;65.72;101384.66;5081211;28;1636;-50
2020/12/27 09:43:52;;;;;;;;;;;;;;;18.64;65.44;101377.97;5062303;28;1909;-50
2020/12/27 09:46:36;;;;;;;;;;;;;;;18.67;64.95;101367.88;5075149;28;1529;-49
2020/12/27 09:49:14;;;;;;;;;;;;;;;18.71;64.95;101378.34;5069918;28;1514;-51
2020/12/27 09:51:39;;;;;;;;;;;;;;;18.73;64.75;101366.53;5078418;28;1572;-49
2020/12/27 09:54:04;;;;;;;;;;;;;;;18.58;64.43;101330.22;5079828;28;1363;-49
2020/12/27 09:56:39;;;;;;;;;;;;;;;18.73;64.54;101346.94;5077868;28;1615;-49
2020/12/27 09:59:04;;;;;;;;;;;;;;;18.74;64.80;101367.38;5079725;28;1473;-49
2020/12/27 10:01:29;;;;;;;;;;;;;;;18.68;64.67;101356.19;5079048;28;1578;-50
2020/12/27 10:03:54;;;;;;;;;;;;;;;18.71;63.98;101355.09;5084308;28;1922;-49
2020/12/27 10:06:19;;;;;;;;;;;;;;;18.77;64.61;101330.50;5081489;28;1674;-48
2020/12/27 10:08:45;;;;;;;;;;;;;;;18.78;65.34;101328.66;5080097;28;1430;-49
2020/12/27 10:11:10;;;;;;;;;;;;;;;18.81;65.70;101342.72;5086084;28;1463;-48
2020/12/27 10:13:35;;;;;;;;;;;;;;;18.77;66.16;101327.81;5082791;28;1499;-49
2020/12/27 10:16:01;;;;;;;;;;;;;;;18.73;65.89;101320.16;5074860;28;1397;-49
2020/12/27 10:18:28;;;;;;;;;;;;;;;18.76;66.12;101339.53;5081754;28;1434;-48
2020/12/27 10:20:53;;;;;;;;;;;;;;;18.64;67.37;101319.91;5079331;28;1566;-48
2020/12/27 10:23:19;;;;;;;;;;;;;;;18.77;66.92;101332.34;5086952;28;1507;-49
2020/12/27 10:25:44;;;;;;;;;;;;;;;18.74;67.80;101330.75;5086391;28;1922;-49
2020/12/27 10:28:10;;;;;;;;;;;;;;;18.71;66.98;101322.94;5081109;28;1800;-50
2020/12/27 10:30:35;;;;;;;;;;;;;;;18.72;69.00;101322.00;5081930;28;1758;-49
2020/12/27 10:33:00;;;;;;;;;;;;;;;18.76;68.47;101322.56;5080528;28;1499;-49
2020/12/27 10:35:25;;;;;;;;;;;;;;;18.72;68.46;101307.72;5084639;28;1321;-49
2020/12/27 10:37:50;;;;;;;;;;;;;;;18.71;68.98;101303.34;5074486;28;1392;-49
2020/12/27 10:40:16;;;;;;;;;;;;;;;18.67;68.98;101290.19;5086441;28;1714;-49
2020/12/27 10:42:41;;;;;;;;;;;;;;;18.68;69.03;101294.59;5084222;28;1635;-49
2020/12/27 10:45:06;;;;;;;;;;;;;;;18.63;69.45;101286.03;5086244;28;1886;-48
2020/12/27 10:47:31;;;;;;;;;;;;;;;18.51;62.97;101286.16;5088162;28;1852;-49
2020/12/27 10:49:57;;;;;;;;;;;;;;;18.38;64.50;101272.84;5087950;28;1657;-49
2020/12/27 10:52:22;;;;;;;;;;;;;;;18.38;66.78;101265.69;5086981;28;1484;-49
2020/12/27 10:54:47;;;;;;;;;;;;;;;18.44;66.49;101259.88;5086876;28;801;-49
2020/12/27 10:57:12;;;;;;;;;;;;;;;18.45;66.46;101253.50;5086144;28;1221;-49
2020/12/27 10:59:38;;;;;;;;;;;;;;;18.53;66.03;101258.28;5077627;28;1575;-49
2020/12/27 11:02:03;;;;;;;;;;;;;;;18.63;65.84;101258.41;5095190;28;1697;-49
2020/12/27 11:04:28;;;;;;;;;;;;;;;18.70;65.45;101262.28;5107151;28;1978;-50
2020/12/27 11:06:53;;;;;;;;;;;;;;;18.69;65.36;101234.66;5091353;28;1731;-46
2020/12/27 11:09:19;;;;;;;;;;;;;;;18.74;65.54;101239.66;5075937;28;1457;-47
2020/12/27 11:11:44;;;;;;;;;;;;;;;18.86;64.78;101229.78;5077641;28;2123;-48
2020/12/27 11:14:09;;;;;;;;;;;;;;;18.84;64.67;101207.63;5106611;28;1785;-50
2020/12/27 11:16:34;;;;;;;;;;;;;;;18.84;65.04;101199.59;5084706;28;1628;-50
2020/12/27 11:19:00;;;;;;;;;;;;;;;18.85;64.93;101193.28;5088545;28;827;-47
2020/12/27 11:21:25;;;;;;;;;;;;;;;18.86;64.95;101179.75;5081112;28;1512;-47
2020/12/27 11:23:51;;;;;;;;;;;;;;;18.90;64.45;101184.84;5089836;28;1955;-47
2020/12/27 11:26:17;;;;;;;;;;;;;;;18.93;64.54;101174.75;5085526;28;785;-47
2020/12/27 11:28:42;;;;;;;;;;;;;;;18.90;64.68;101190.22;5066855;28;844;-47
2020/12/27 11:31:07;;;;;;;;;;;;;;;18.91;64.61;101176.69;5080608;28;1654;-49
2020/12/27 11:33:32;;;;;;;;;;;;;;;18.92;64.70;101169.50;5088330;28;1744;-48
2020/12/27 11:35:58;;;;;;;;;;;;;;;18.96;64.86;101158.44;5088899;28;1750;-48
2020/12/27 11:38:23;;;;;;;;;;;;;;;18.99;65.45;101166.19;5080451;28;909;-47
2020/12/27 11:40:48;;;;;;;;;;;;;;;18.94;65.67;101155.03;5087155;28;844;-47
2020/12/27 11:43:13;;;;;;;;;;;;;;;18.88;65.94;101152.84;5088586;28;857;-47
2020/12/27 11:45:39;;;;;;;;;;;;;;;18.87;65.78;101148.44;5082010;28;1890;-48
2020/12/27 11:48:04;;;;;;;;;;;;;;;18.80;65.64;101141.88;5088568;28;1242;-48
2020/12/27 11:50:29;;;;;;;;;;;;;;;18.73;65.80;101135.28;5094926;28;1429;-48
2020/12/27 11:52:54;;;;;;;;;;;;;;;18.71;66.02;101138.09;5094398;28;856;-48
2020/12/27 11:55:20;;;;;;;;;;;;;;;18.74;65.71;101142.34;5093901;28;788;-48
2020/12/27 11:57:45;;;;;;;;;;;;;;;18.71;66.34;101153.31;5103176;28;1905;-48
2020/12/27 12:00:12;;;;;;;;;;;;;;;18.66;66.18;101145.63;5095108;28;1197;-47
2020/12/27 12:02:38;;;;;;;;;;;;;;;18.65;66.13;101139.44;5110451;28;1782;-48
2020/12/27 12:05:03;;;;;;;;;;;;;;;18.61;66.35;101142.50;5098082;28;1981;-48
2020/12/27 12:07:28;;;;;;;;;;;;;;;18.62;66.61;101134.34;5085216;28;1599;-47
2020/12/27 12:09:53;;;;;;;;;;;;;;;18.59;66.46;101139.94;5080355;28;1942;-47
2020/12/27 12:12:19;;;;;;;;;;;;;;;18.58;66.30;101124.84;5074448;28;928;-48
2020/12/27 12:14:44;;;;;;;;;;;;;;;18.58;66.25;101121.31;5084520;28;1695;-48
2020/12/27 12:17:09;;;;;;;;;;;;;;;18.57;66.75;101120.47;5095104;28;1089;-48
2020/12/27 12:19:34;;;;;;;;;;;;;;;18.59;66.97;101118.50;5098311;28;1731;-48
2020/12/27 12:22:00;;;;;;;;;;;;;;;18.65;66.25;101114.47;5095775;28;1809;-48
2020/12/27 12:24:25;;;;;;;;;;;;;;;18.70;66.05;101117.63;5092803;28;1870;-48
2020/12/27 12:26:50;;;;;;;;;;;;;;;18.75;65.38;101101.19;5092198;28;1298;-48
2020/12/27 12:29:16;;;;;;;;;;;;;;;18.80;65.67;101120.44;5093887;28;1250;-48
2020/12/27 12:31:41;;;;;;;;;;;;;;;18.77;65.39;101096.56;5091724;28;1693;-48
2020/12/27 12:34:07;;;;;;;;;;;;;;;18.76;65.71;101089.47;5097531;28;1759;-50
2020/12/27 12:36:32;;;;;;;;;;;;;;;18.84;65.19;101097.78;5111673;28;1771;-48
2020/12/27 12:38:58;;;;;;;;;;;;;;;18.81;65.13;101090.84;5103472;28;1627;-48
2020/12/27 12:41:24;;;;;;;;;;;;;;;18.85;65.05;101070.00;5099717;28;1743;-48
2020/12/27 12:43:49;;;;;;;;;;;;;;;18.88;64.82;101075.97;5091805;28;1947;-48
2020/12/27 12:46:15;;;;;;;;;;;;;;;18.89;65.08;101066.09;5091065;28;1534;-49